Avera, GA

6:46 AM EDT on July 29, 2014 (GMT -0400)
RAWS LOUISVILLE GA US (MLOUG1) Elev 311 ft | 32.99 °N, 82.38 °W | Change Station

Current weather conditions updated 43 minutes ago

Clear
Clear
65 °F
Feels Like 65 °F
N
1
Wind Variable Wind from NW
Gusts 4.0 mph

Today is forecast to be Cooler than yesterday.

Today
High -- | Low -- °F
--% Chance of Precip.
Yesterday
High -- | Low -- °F
Precip. -- in
6:41 AM 8:31 PM
Waxing Crescent, 6% visible
Pressure 29.99 in
Visibility 10.0 miles
Clouds Clear
Dew Point 60 °F
Humidity 85%
Rainfall 0.10 in
Snow Depth Not available.
UV 0 out of 12
Pollen 5.90 out of 12
Air Quality Not available.
Flu Activity Not available.
METAR KHQU 291035Z AUTO 00000KT 10SM CLR 18/18 A2999 RMK AO1 T01750175

More Conditions Fewer Conditions

Pressure 29.99 in
Visibility 10.0 miles
Clouds Clear
Dew Point 60 °F
Humidity 85%
Rainfall 0.10 in
Snow Depth Not available.
UV 0 out of 12
Pollen 5.90 out of 12
Air Quality Not available.
Flu Activity Not available.
METAR KHQU 291035Z AUTO 00000KT 10SM CLR 18/18 A2999 RMK AO1 T01750175

More Conditions Fewer Conditions

10-Day Weather Forecast

Almanac

Astronomy

Jul. 29, 2014 Rise Set
Actual Time 6:41 AM EDT 8:31 PM EDT
Civil Twilight 6:13 AM EDT 8:58 PM EDT
Nautical Twilight 5:40 AM EDT 9:31 PM EDT
Astronomical Twilight 5:05 AM EDT 10:06 PM EDT
Moon 9:05 AM EDT 9:55 PM EDT
Length of Visible Light 14h 45m
Length of Day
13h 50m
Tomorrow will be 1m 29s shorter.
Waxing Crescent, 6% of the Moon is Illuminated
Today
Waxing Crescent
Aug 3
First Quarter
Aug 10
Full
Aug 17
Last Quarter
Aug 25
New

Today's Extremes

State Highs State Lows

Community

WunderPhotos

Upload Photos

1,738,683 photos uploaded!

Nearby

Snow Depth

Station Depth Elevation
No new snow has been reported.

Earthquake Activity

City Distance Mag. Time & Date
No recent earthquake activity has been reported nearby.
Minimum magnitude displayed is 2.5.

Coastal Water Temperatures

Place Temperature
No Stations Reporting

Nearby Weather Stations

Station Location Temp. Dew Point Humidity Wind Precip. Elev Updated Type
RAWS LOUISVILLE GA, Louisville, GA 65 °F 60 °F 85% NW  at  1 mph 0.00 in / hr 311 ft 6:03 AM EDT MADIS
Pumpkin Center, Harlem, GA 62.9 °F 61 °F 93% West  at  0.0 mph 0.00 in / hr 460 ft 6:46 AM EDT Rapid Fire

Show More Stations Show Fewer Stations